createdAt,value
2024-05-09T00:00:01.746Z,1012.01
2024-05-09T00:05:02.398Z,1012.02
2024-05-09T00:10:01.386Z,1011.99
2024-05-09T00:15:02.096Z,1011.85
2024-05-09T00:20:01.675Z,1011.83
2024-05-09T00:25:01.175Z,1011.89
2024-05-09T00:30:01.565Z,1011.9
2024-05-09T00:35:01.783Z,1011.83
2024-05-09T00:40:01.243Z,1011.83
2024-05-09T00:45:01.549Z,1011.78
2024-05-09T00:50:01.637Z,1011.8
2024-05-09T00:55:01.847Z,1011.8
2024-05-09T01:00:01.699Z,1011.78
2024-05-09T01:05:01.398Z,1011.79
2024-05-09T01:10:01.409Z,1011.86
2024-05-09T01:15:01.637Z,1011.93
2024-05-09T01:20:01.934Z,1011.81
2024-05-09T01:25:01.770Z,1011.77
2024-05-09T01:30:01.371Z,1011.77
2024-05-09T01:40:01.488Z,1011.7
2024-05-09T01:45:01.670Z,1011.65
2024-05-09T01:50:02.067Z,1011.58
2024-05-09T01:55:04.666Z,1011.53
2024-05-09T02:00:01.723Z,1011.61
2024-05-09T02:05:01.930Z,1011.53
2024-05-09T02:10:01.437Z,1011.54
2024-05-09T02:15:02.061Z,1011.51
2024-05-09T02:20:01.806Z,1011.54
2024-05-09T02:25:01.869Z,1011.57
2024-05-09T02:30:01.346Z,1011.56
2024-05-09T02:35:01.896Z,1011.54
2024-05-09T02:40:03.287Z,1011.54
2024-05-09T02:45:02.238Z,1011.57
2024-05-09T02:50:01.598Z,1011.56
2024-05-09T02:55:02.177Z,1011.56
2024-05-09T03:00:01.590Z,1011.56
2024-05-09T03:05:02.072Z,1011.56
2024-05-09T03:10:01.748Z,1011.45
2024-05-09T03:15:02.208Z,1011.47
2024-05-09T03:20:01.610Z,1011.45
2024-05-09T03:25:02.167Z,1011.48
2024-05-09T03:30:03.820Z,1011.39
2024-05-09T03:35:02.180Z,1011.44
2024-05-09T03:40:01.486Z,1011.38
2024-05-09T03:45:01.623Z,1011.35
2024-05-09T03:50:02.319Z,1011.35
2024-05-09T03:55:01.657Z,1011.4
2024-05-09T04:00:03.001Z,1011.37
2024-05-09T04:05:02.068Z,1011.37
2024-05-09T04:10:01.696Z,1011.37
2024-05-09T04:15:01.535Z,1011.41
2024-05-09T04:20:02.259Z,1011.41
2024-05-09T04:25:01.745Z,1011.41
2024-05-09T04:30:02.116Z,1011.53
2024-05-09T04:35:02.203Z,1011.56
2024-05-09T04:40:01.497Z,1011.56
2024-05-09T04:45:01.386Z,1011.54
2024-05-09T04:50:02.140Z,1011.55
2024-05-09T04:55:01.706Z,1011.53
2024-05-09T05:00:02.121Z,1011.53
2024-05-09T05:05:01.857Z,1011.55
2024-05-09T05:10:03.329Z,1011.53
2024-05-09T05:15:01.937Z,1011.64
2024-05-09T05:20:01.487Z,1011.62
2024-05-09T05:25:01.780Z,1011.63
2024-05-09T05:30:01.452Z,1011.59
2024-05-09T05:35:01.799Z,1011.62
2024-05-09T05:40:03.221Z,1011.76
2024-05-09T05:45:01.341Z,1011.74
2024-05-09T05:50:01.827Z,1011.73
2024-05-09T05:55:01.462Z,1011.72
2024-05-09T06:00:02.200Z,1011.81
2024-05-09T06:05:01.375Z,1011.8
2024-05-09T06:10:01.588Z,1011.86
2024-05-09T06:15:01.930Z,1011.86
2024-05-09T06:20:01.754Z,1011.86
2024-05-09T06:25:02.155Z,1011.86
2024-05-09T06:30:01.287Z,1011.82
2024-05-09T06:35:01.458Z,1011.87
2024-05-09T06:40:01.522Z,1011.82
2024-05-09T06:45:01.795Z,1011.85
2024-05-09T06:50:02.157Z,1011.87
2024-05-09T06:55:01.539Z,1011.97
2024-05-09T07:00:01.966Z,1011.98
2024-05-09T07:05:02.176Z,1011.96
2024-05-09T07:10:01.289Z,1011.95
2024-05-09T07:15:01.346Z,1011.96
2024-05-09T07:20:01.694Z,1011.97
2024-05-09T07:25:01.776Z,1011.93
2024-05-09T07:30:01.814Z,1011.93
2024-05-09T07:35:01.443Z,1011.87
2024-05-09T07:40:01.418Z,1011.88
2024-05-09T07:45:21.073Z,1011.9
2024-05-09T07:51:51.321Z,1011.91
2024-05-09T07:55:01.582Z,1011.91
2024-05-09T08:00:01.422Z,1011.93
2024-05-09T08:05:02.247Z,1011.94
2024-05-09T08:10:01.483Z,1011.88
2024-05-09T08:15:01.458Z,1011.87
2024-05-09T08:20:05.074Z,1011.81
2024-05-09T08:25:01.366Z,1011.79
2024-05-09T08:30:01.669Z,1011.76
2024-05-09T08:35:02.177Z,1011.73
2024-05-09T08:40:01.515Z,1011.72
2024-05-09T08:45:01.442Z,1011.68
2024-05-09T08:50:01.626Z,1011.66
2024-05-09T08:55:01.325Z,1011.68
2024-05-09T09:00:01.505Z,1011.63
2024-05-09T09:05:01.404Z,1011.63
2024-05-09T09:10:01.339Z,1011.61
2024-05-09T09:15:01.615Z,1011.52
2024-05-09T09:20:02.190Z,1011.48
2024-05-09T09:25:02.147Z,1011.46
2024-05-09T09:30:02.282Z,1011.38
2024-05-09T09:35:01.967Z,1011.42
2024-05-09T09:40:02.234Z,1011.41
2024-05-09T09:45:05.136Z,1011.41
2024-05-09T09:50:02.277Z,1011.32
2024-05-09T09:55:02.053Z,1011.26
2024-05-09T10:00:03.154Z,1011.23
2024-05-09T10:05:01.784Z,1011.13
2024-05-09T10:10:01.898Z,1011.14
2024-05-09T10:15:01.916Z,1011.17
2024-05-09T10:20:01.655Z,1011.07
2024-05-09T10:25:04.729Z,1011.09
2024-05-09T10:30:02.847Z,1011.05
2024-05-09T10:35:01.726Z,1010.97
2024-05-09T10:40:01.830Z,1010.88
2024-05-09T10:45:01.900Z,1010.87
2024-05-09T10:50:01.965Z,1010.82
2024-05-09T10:55:05.524Z,1010.77
2024-05-09T11:00:01.797Z,1010.68
2024-05-09T11:05:01.535Z,1010.67
2024-05-09T11:10:01.437Z,1010.63
2024-05-09T11:15:01.395Z,1010.63
2024-05-09T11:20:01.944Z,1010.59
2024-05-09T11:25:01.878Z,1010.56
2024-05-09T11:30:02.017Z,1010.52
2024-05-09T11:35:01.558Z,1010.44
2024-05-09T11:40:01.512Z,1010.38
2024-05-09T11:45:01.504Z,1010.36
2024-05-09T11:50:02.274Z,1010.23
2024-05-09T11:55:01.245Z,1010.21
2024-05-09T12:00:03.058Z,1010.23
2024-05-09T12:05:02.108Z,1010.13
2024-05-09T12:10:02.085Z,1010.13
2024-05-09T12:15:01.870Z,1010.03
2024-05-09T12:20:01.344Z,1010
2024-05-09T12:25:01.520Z,1009.91
2024-05-09T12:30:01.658Z,1009.84
2024-05-09T12:35:02.154Z,1009.73
2024-05-09T12:40:02.846Z,1009.74
2024-05-09T12:45:02.167Z,1009.63
2024-05-09T12:50:02.321Z,1009.65
2024-05-09T12:55:02.031Z,1009.56
2024-05-09T13:00:02.948Z,1009.58
2024-05-09T13:05:01.486Z,1009.56
2024-05-09T13:10:01.350Z,1009.49
2024-05-09T13:15:02.186Z,1009.43
2024-05-09T13:20:02.477Z,1009.37
2024-05-09T13:25:01.839Z,1009.4
2024-05-09T13:30:01.610Z,1009.37
2024-05-09T13:35:02.050Z,1009.35
2024-05-09T13:40:02.113Z,1009.35
2024-05-09T13:45:02.189Z,1009.23
2024-05-09T13:50:01.961Z,1009.16
2024-05-09T13:55:01.560Z,1009.1
2024-05-09T14:00:01.527Z,1009.03
2024-05-09T14:05:02.104Z,1009.02
2024-05-09T14:10:02.509Z,1008.95
2024-05-09T14:15:02.071Z,1008.91
2024-05-09T14:20:01.659Z,1008.89
2024-05-09T14:25:01.808Z,1008.79
2024-05-09T14:30:01.699Z,1008.81
2024-05-09T14:35:02.119Z,1008.72
2024-05-09T14:40:02.269Z,1008.63
2024-05-09T14:45:02.269Z,1008.62
2024-05-09T14:50:01.718Z,1008.55
2024-05-09T14:55:01.705Z,1008.59
2024-05-09T15:00:02.098Z,1008.6
2024-05-09T15:05:02.173Z,1008.53
2024-05-09T15:10:02.472Z,1008.5
2024-05-09T15:15:02.176Z,1008.46
2024-05-09T15:20:02.335Z,1008.32
2024-05-09T15:25:02.232Z,1008.35
2024-05-09T15:30:02.212Z,1008.22
2024-05-09T15:35:01.299Z,1008.17
2024-05-09T15:40:01.424Z,1008.13
2024-05-09T15:45:01.514Z,1008.07
2024-05-09T15:50:01.717Z,1008.03
2024-05-09T15:55:01.653Z,1008.05
2024-05-09T16:00:01.545Z,1007.99
2024-05-09T16:05:01.390Z,1007.98
2024-05-09T16:10:01.496Z,1007.94
2024-05-09T16:15:01.213Z,1007.89
2024-05-09T16:20:01.256Z,1007.93
2024-05-09T16:25:01.464Z,1007.91
2024-05-09T16:30:02.097Z,1007.87
2024-05-09T16:35:01.940Z,1007.87
2024-05-09T16:40:01.930Z,1007.86
2024-05-09T16:45:01.891Z,1007.85
2024-05-09T16:50:01.936Z,1007.78
2024-05-09T16:55:01.793Z,1007.76
2024-05-09T17:00:01.564Z,1007.77
2024-05-09T17:05:01.628Z,1007.77
2024-05-09T17:10:01.974Z,1007.75
2024-05-09T17:15:02.146Z,1007.78
2024-05-09T17:20:01.935Z,1007.78
2024-05-09T17:25:02.084Z,1007.77
2024-05-09T17:30:02.065Z,1007.79
2024-05-09T17:35:02.439Z,1007.76
2024-05-09T17:40:01.968Z,1007.78
2024-05-09T17:45:02.092Z,1007.73
2024-05-09T17:50:02.232Z,1007.76
2024-05-09T17:55:02.336Z,1007.76
2024-05-09T18:00:01.297Z,1007.74
2024-05-09T18:05:01.450Z,1007.81
2024-05-09T18:10:01.437Z,1007.75
2024-05-09T18:15:01.519Z,1007.8
2024-05-09T18:20:01.826Z,1007.82
2024-05-09T18:25:01.796Z,1007.81
2024-05-09T18:30:01.914Z,1007.81
2024-05-09T18:35:01.980Z,1007.8
2024-05-09T18:40:01.874Z,1007.82
2024-05-09T18:45:01.960Z,1007.85
2024-05-09T18:50:01.999Z,1007.91
2024-05-09T18:55:01.852Z,1007.88
2024-05-09T19:00:01.852Z,1007.88
2024-05-09T19:05:01.879Z,1007.98
2024-05-09T19:10:01.959Z,1007.99
2024-05-09T19:15:01.931Z,1008.02
2024-05-09T19:20:03.435Z,1008.04
2024-05-09T19:25:01.819Z,1008.06
2024-05-09T19:30:01.574Z,1008.14
2024-05-09T19:35:01.469Z,1008.19
2024-05-09T19:40:05.392Z,1008.24
2024-05-09T19:45:03.197Z,1008.29
2024-05-09T19:50:02.603Z,1008.29
2024-05-09T19:55:01.311Z,1008.29
2024-05-09T20:00:03.255Z,1008.28
2024-05-09T20:05:02.262Z,1008.3
2024-05-09T20:10:01.292Z,1008.39
2024-05-09T20:15:01.884Z,1008.43
2024-05-09T20:20:03.698Z,1008.48
2024-05-09T20:25:02.668Z,1008.51
2024-05-09T20:30:02.397Z,1008.52
2024-05-09T20:35:02.351Z,1008.47
2024-05-09T20:40:02.955Z,1008.41
2024-05-09T20:45:02.379Z,1008.47
2024-05-09T20:50:13.714Z,1008.45
2024-05-09T20:55:01.763Z,1008.43
2024-05-09T21:00:01.603Z,1008.39
2024-05-09T21:05:03.091Z,1008.29
2024-05-09T21:10:04.644Z,1008.31
2024-05-09T21:15:02.996Z,1008.38
2024-05-09T21:20:02.867Z,1008.36
2024-05-09T21:25:02.410Z,1008.38
2024-05-09T21:30:01.948Z,1008.39
2024-05-09T21:35:02.329Z,1008.39
2024-05-09T21:40:03.084Z,1008.46
2024-05-09T21:45:01.896Z,1008.43
2024-05-09T21:50:02.324Z,1008.37
2024-05-09T21:55:02.479Z,1008.28
2024-05-09T22:00:02.315Z,1008.34
2024-05-09T22:05:02.326Z,1008.34
2024-05-09T22:10:01.947Z,1008.36
2024-05-09T22:15:01.305Z,1008.37
2024-05-09T22:20:01.326Z,1008.38
2024-05-09T22:25:01.440Z,1008.36
2024-05-09T22:30:01.590Z,1008.33
2024-05-09T22:35:01.443Z,1008.32
2024-05-09T22:40:03.956Z,1008.26
2024-05-09T22:45:01.457Z,1008.3
2024-05-09T22:50:01.554Z,1008.31
2024-05-09T22:55:01.694Z,1008.3
2024-05-09T23:00:01.250Z,1008.3
2024-05-09T23:05:01.434Z,1008.35
2024-05-09T23:10:01.379Z,1008.35
2024-05-09T23:15:02.213Z,1008.36
2024-05-09T23:20:02.903Z,1008.3
2024-05-09T23:25:02.160Z,1008.29
2024-05-09T23:30:02.014Z,1008.34
2024-05-09T23:35:02.043Z,1008.23
2024-05-09T23:40:02.291Z,1008.2
2024-05-09T23:45:02.078Z,1008.13
2024-05-09T23:50:03.735Z,1008.19
2024-05-09T23:55:01.931Z,1008.1
